createdAt,value
2022-09-25T00:01:39.452Z,8.93
2022-09-25T00:04:06.255Z,7.73
2022-09-25T00:06:35.542Z,7.00
2022-09-25T00:09:02.299Z,7.00
2022-09-25T00:11:31.673Z,5.57
2022-09-25T00:13:59.639Z,6.10
2022-09-25T00:16:29.509Z,5.60
2022-09-25T00:19:16.145Z,5.40
2022-09-25T00:21:43.292Z,5.07
2022-09-25T00:24:10.934Z,4.70
2022-09-25T00:26:41.062Z,4.13
2022-09-25T00:29:09.208Z,4.33
2022-09-25T00:31:35.624Z,5.07
2022-09-25T00:34:04.321Z,4.40
2022-09-25T00:36:31.340Z,5.53
2022-09-25T00:38:58.253Z,3.87
2022-09-25T00:41:27.173Z,4.10
2022-09-25T00:43:56.290Z,4.27
2022-09-25T00:46:28.151Z,4.47
2022-09-25T00:49:07.531Z,4.27
2022-09-25T00:51:38.843Z,4.97
2022-09-25T00:54:07.177Z,3.97
2022-09-25T00:56:38.591Z,4.80
2022-09-25T00:59:05.636Z,4.57
2022-09-25T01:01:32.196Z,4.70
2022-09-25T01:03:59.633Z,4.47
2022-09-25T01:06:26.570Z,5.40
2022-09-25T01:08:53.128Z,4.63
2022-09-25T01:11:19.531Z,4.57
2022-09-25T01:13:46.096Z,4.17
2022-09-25T01:16:17.964Z,4.70
2022-09-25T01:18:53.468Z,4.50
2022-09-25T01:21:45.149Z,4.10
2022-09-25T01:24:21.027Z,3.47
2022-09-25T01:27:11.510Z,3.97
2022-09-25T01:30:00.068Z,3.53
2022-09-25T01:32:37.039Z,4.03
2022-09-25T01:35:19.249Z,3.73
2022-09-25T01:37:52.919Z,4.00
2022-09-25T01:40:33.533Z,3.77
2022-09-25T01:43:19.195Z,3.77
2022-09-25T01:45:51.884Z,4.07
2022-09-25T01:48:21.518Z,3.60
2022-09-25T01:51:10.852Z,4.27
2022-09-25T01:53:45.773Z,4.57
2022-09-25T01:56:20.002Z,3.73
2022-09-25T01:58:50.707Z,4.30
2022-09-25T02:01:23.084Z,4.67
2022-09-25T02:04:00.195Z,4.40
2022-09-25T02:06:26.809Z,4.50
2022-09-25T02:09:01.184Z,4.97
2022-09-25T02:11:37.378Z,5.50
2022-09-25T02:14:10.691Z,4.87
2022-09-25T02:16:43.886Z,5.73
2022-09-25T02:19:34.740Z,5.57
2022-09-25T02:22:20.609Z,5.17
2022-09-25T02:24:57.993Z,6.47
2022-09-25T02:27:27.546Z,5.87
2022-09-25T02:29:55.277Z,5.93
2022-09-25T02:32:25.671Z,5.53
2022-09-25T02:34:52.369Z,6.40
2022-09-25T02:37:18.862Z,6.17
2022-09-25T02:39:48.298Z,6.20
2022-09-25T02:42:29.715Z,4.97
2022-09-25T02:45:17.484Z,5.03
2022-09-25T02:48:10.286Z,4.40
2022-09-25T02:51:04.899Z,4.37
2022-09-25T02:53:41.707Z,3.67
2022-09-25T02:56:43.528Z,4.80
2022-09-25T02:59:16.658Z,4.60
2022-09-25T03:01:43.640Z,4.00
2022-09-25T03:04:11.238Z,3.80
2022-09-25T03:06:38.477Z,4.37
2022-09-25T03:09:05.586Z,3.80
2022-09-25T03:11:32.023Z,3.97
2022-09-25T03:14:03.519Z,3.73
2022-09-25T03:16:46.578Z,3.87
2022-09-25T03:19:14.042Z,4.13
2022-09-25T03:21:40.497Z,4.07
2022-09-25T03:24:06.954Z,3.37
2022-09-25T03:26:33.850Z,4.40
2022-09-25T03:29:02.311Z,4.20
2022-09-25T03:31:29.959Z,4.10
2022-09-25T03:33:56.692Z,4.50
2022-09-25T03:36:25.200Z,4.23
2022-09-25T03:38:53.737Z,4.00
2022-09-25T03:41:22.113Z,3.80
2022-09-25T03:43:51.470Z,4.97
2022-09-25T03:46:22.231Z,3.87
2022-09-25T03:48:48.841Z,3.70
2022-09-25T03:51:15.319Z,3.93
2022-09-25T03:53:41.736Z,3.53
2022-09-25T03:56:11.567Z,3.80
2022-09-25T03:58:37.941Z,3.40
2022-09-25T04:01:04.897Z,3.50
2022-09-25T04:03:32.741Z,3.47
2022-09-25T04:06:01.216Z,3.93
2022-09-25T04:08:28.179Z,3.50
2022-09-25T04:10:56.498Z,3.87
2022-09-25T04:13:23.824Z,3.97
2022-09-25T04:15:51.701Z,3.50
2022-09-25T04:18:18.874Z,4.10
2022-09-25T04:20:45.441Z,3.50
2022-09-25T04:23:12.026Z,3.30
2022-09-25T04:25:38.426Z,3.30
2022-09-25T04:28:05.302Z,3.30
2022-09-25T04:30:31.690Z,4.20
2022-09-25T04:33:16.651Z,3.60
2022-09-25T04:35:43.095Z,3.87
2022-09-25T04:38:09.804Z,3.40
2022-09-25T04:40:37.190Z,3.70
2022-09-25T04:43:05.021Z,4.10
2022-09-25T04:45:33.517Z,4.27
2022-09-25T04:48:00.522Z,4.10
2022-09-25T04:50:28.108Z,3.23
2022-09-25T04:52:54.720Z,4.43
2022-09-25T04:55:24.293Z,3.83
2022-09-25T04:57:59.590Z,3.70
2022-09-25T05:00:29.394Z,3.60
2022-09-25T05:02:56.254Z,4.13
2022-09-25T05:05:22.870Z,3.27
2022-09-25T05:07:54.108Z,3.23
2022-09-25T05:10:21.783Z,3.23
2022-09-25T05:12:48.421Z,3.57
2022-09-25T05:15:15.312Z,3.77
2022-09-25T05:17:41.821Z,3.83
2022-09-25T05:20:09.536Z,4.07
2022-09-25T05:22:35.934Z,4.53
2022-09-25T05:25:02.375Z,3.83
2022-09-25T05:27:28.765Z,3.80
2022-09-25T05:29:55.144Z,3.20
2022-09-25T05:32:22.916Z,3.63
2022-09-25T05:34:49.348Z,3.57
2022-09-25T05:37:15.714Z,3.13
2022-09-25T05:39:42.115Z,3.90
2022-09-25T05:42:08.984Z,3.80
2022-09-25T05:44:35.504Z,3.80
2022-09-25T05:47:03.834Z,3.20
2022-09-25T05:49:30.251Z,3.47
2022-09-25T05:51:56.631Z,4.13
2022-09-25T05:54:23.113Z,3.20
2022-09-25T05:56:49.660Z,4.03
2022-09-25T05:59:16.059Z,3.67
2022-09-25T06:01:42.483Z,3.03
2022-09-25T06:04:10.113Z,3.30
2022-09-25T06:06:36.518Z,3.97
2022-09-25T06:09:03.159Z,3.50
2022-09-25T06:11:31.586Z,3.80
2022-09-25T06:13:57.997Z,3.03
2022-09-25T06:16:24.461Z,3.30
2022-09-25T06:18:52.430Z,3.07
2022-09-25T06:21:18.799Z,3.03
2022-09-25T06:23:45.648Z,3.03
2022-09-25T06:26:12.869Z,3.10
2022-09-25T06:28:39.513Z,3.60
2022-09-25T06:31:06.009Z,3.10
2022-09-25T06:33:32.939Z,3.23
2022-09-25T06:36:00.501Z,3.33
2022-09-25T06:38:27.275Z,2.70
2022-09-25T06:40:54.125Z,2.37
2022-09-25T06:43:22.486Z,2.93
2022-09-25T06:45:51.216Z,3.20
2022-09-25T06:48:18.154Z,3.30
2022-09-25T06:50:55.859Z,2.87
2022-09-25T06:53:24.173Z,3.10
2022-09-25T06:55:51.013Z,3.50
2022-09-25T06:58:19.793Z,3.83
2022-09-25T07:00:50.733Z,3.70
2022-09-25T07:03:35.921Z,3.87
2022-09-25T07:06:03.818Z,3.87
2022-09-25T07:08:31.025Z,5.57
2022-09-25T07:10:58.577Z,4.07
2022-09-25T07:13:28.708Z,3.50
2022-09-25T07:15:56.771Z,3.20
2022-09-25T07:18:24.400Z,3.70
2022-09-25T07:20:51.602Z,3.77
2022-09-25T07:23:19.289Z,3.83
2022-09-25T07:25:46.580Z,3.60
2022-09-25T07:28:14.436Z,4.30
2022-09-25T07:30:41.900Z,4.60
2022-09-25T07:33:08.772Z,4.80
2022-09-25T07:35:36.087Z,5.10
2022-09-25T07:38:02.546Z,4.60
2022-09-25T07:40:29.407Z,6.43
2022-09-25T07:43:00.135Z,4.20
2022-09-25T07:45:26.631Z,4.43
2022-09-25T07:47:57.547Z,5.10
2022-09-25T07:50:24.166Z,4.37
2022-09-25T07:52:50.615Z,4.10
2022-09-25T07:55:18.357Z,4.30
2022-09-25T07:57:45.310Z,3.10
2022-09-25T08:00:12.846Z,2.73
2022-09-25T08:02:39.415Z,3.27
2022-09-25T08:05:06.424Z,3.00
2022-09-25T08:07:32.957Z,2.87
2022-09-25T08:09:59.363Z,2.17
2022-09-25T08:12:25.853Z,2.30
2022-09-25T08:14:52.833Z,2.40
2022-09-25T08:17:19.914Z,2.13
2022-09-25T08:19:46.417Z,1.80
2022-09-25T08:22:13.002Z,1.90
2022-09-25T08:24:39.460Z,1.93
2022-09-25T08:27:07.666Z,1.77
2022-09-25T08:29:34.298Z,1.90
2022-09-25T08:32:01.543Z,2.00
2022-09-25T08:34:40.445Z,1.90
2022-09-25T08:37:08.279Z,2.00
2022-09-25T08:39:34.689Z,2.27
2022-09-25T08:42:01.900Z,1.80
2022-09-25T08:45:02.549Z,1.53
2022-09-25T08:47:49.015Z,1.50
2022-09-25T08:50:26.019Z,1.30
2022-09-25T08:53:04.748Z,1.50
2022-09-25T08:55:53.096Z,1.77
2022-09-25T08:58:34.095Z,1.40
2022-09-25T09:01:08.521Z,1.70
2022-09-25T09:03:41.763Z,1.77
2022-09-25T09:06:12.668Z,1.47
2022-09-25T09:08:40.257Z,1.63
2022-09-25T09:11:25.924Z,1.53
2022-09-25T09:14:03.981Z,1.50
2022-09-25T09:16:35.185Z,1.40
2022-09-25T09:19:03.488Z,1.20
2022-09-25T09:22:00.875Z,1.57
2022-09-25T09:24:55.011Z,1.50
2022-09-25T09:27:52.584Z,1.50
2022-09-25T09:30:23.022Z,1.40
2022-09-25T09:33:15.668Z,1.50
2022-09-25T09:36:14.555Z,1.33
2022-09-25T09:38:44.206Z,1.50
2022-09-25T09:41:55.605Z,1.27
2022-09-25T09:44:40.634Z,1.40
2022-09-25T09:47:39.298Z,1.60
2022-09-25T09:50:11.760Z,1.30
2022-09-25T09:52:40.181Z,1.60
2022-09-25T09:55:15.558Z,1.40
2022-09-25T09:57:54.249Z,1.33
2022-09-25T10:00:22.770Z,1.13
2022-09-25T10:03:01.581Z,1.30
2022-09-25T10:05:33.089Z,1.40
2022-09-25T10:07:59.893Z,1.33
2022-09-25T10:10:40.558Z,1.50
2022-09-25T10:13:15.197Z,1.20
2022-09-25T10:16:05.263Z,1.17
2022-09-25T10:18:37.470Z,1.10
2022-09-25T10:21:10.375Z,1.13
2022-09-25T10:23:54.104Z,1.30
2022-09-25T10:26:30.790Z,1.20
2022-09-25T10:28:59.539Z,1.80
2022-09-25T10:31:29.203Z,1.67
2022-09-25T10:34:03.079Z,1.30
2022-09-25T10:36:41.012Z,1.27
2022-09-25T10:39:49.036Z,1.20
2022-09-25T10:43:01.702Z,1.50
2022-09-25T10:45:33.970Z,1.10
2022-09-25T10:48:19.336Z,1.50
2022-09-25T10:51:05.635Z,0.90
2022-09-25T10:53:32.043Z,1.10
2022-09-25T10:56:05.925Z,1.20
2022-09-25T10:58:37.140Z,1.40
2022-09-25T11:01:05.015Z,1.10
2022-09-25T11:03:34.379Z,1.20
2022-09-25T11:06:05.424Z,1.10
2022-09-25T11:08:37.885Z,1.00
2022-09-25T11:11:27.575Z,1.27
2022-09-25T11:13:56.783Z,1.40
2022-09-25T11:16:42.057Z,1.50
2022-09-25T11:19:13.298Z,1.00
2022-09-25T11:22:00.006Z,1.00
2022-09-25T11:24:42.713Z,1.00
2022-09-25T11:27:31.281Z,1.10
2022-09-25T11:30:06.191Z,1.13
2022-09-25T11:32:58.925Z,1.07
2022-09-25T11:35:34.867Z,1.70
2022-09-25T11:38:49.484Z,0.87
2022-09-25T11:41:30.135Z,1.53
2022-09-25T11:44:24.039Z,1.13
2022-09-25T11:47:01.277Z,1.27
2022-09-25T11:49:31.300Z,1.40
2022-09-25T11:52:06.462Z,1.00
2022-09-25T11:54:54.605Z,1.17
2022-09-25T11:57:34.218Z,0.93
2022-09-25T12:00:04.825Z,1.23
2022-09-25T12:02:53.470Z,1.67
2022-09-25T12:05:45.317Z,1.07
2022-09-25T12:08:23.360Z,1.13
2022-09-25T12:11:14.692Z,1.80
2022-09-25T12:14:04.906Z,1.30
2022-09-25T12:16:43.183Z,1.40
2022-09-25T12:19:23.599Z,1.13
2022-09-25T12:22:14.739Z,0.97
2022-09-25T12:25:04.027Z,1.00
2022-09-25T12:27:33.359Z,1.33
2022-09-25T12:30:25.223Z,1.10
2022-09-25T12:33:27.962Z,1.10
2022-09-25T12:36:03.637Z,1.20
2022-09-25T12:38:36.764Z,1.20
2022-09-25T12:41:10.430Z,1.50
2022-09-25T12:43:48.699Z,1.60
2022-09-25T12:46:20.586Z,1.33
2022-09-25T12:48:55.655Z,1.33
2022-09-25T12:51:42.731Z,1.50
2022-09-25T12:54:28.192Z,1.30
2022-09-25T12:57:08.984Z,1.30
2022-09-25T12:59:49.296Z,1.90
2022-09-25T13:02:24.667Z,1.40
2022-09-25T13:04:59.278Z,1.20
2022-09-25T13:07:31.698Z,1.37
2022-09-25T13:09:58.131Z,1.40
2022-09-25T13:12:33.253Z,1.40
2022-09-25T13:15:08.767Z,1.30
2022-09-25T13:17:36.647Z,1.10
2022-09-25T13:20:31.847Z,1.20
2022-09-25T13:23:03.053Z,1.33
2022-09-25T13:25:29.979Z,1.20
2022-09-25T13:27:57.574Z,1.37
2022-09-25T13:30:27.966Z,1.00
2022-09-25T13:32:56.403Z,1.10
2022-09-25T13:35:23.867Z,1.00
2022-09-25T13:37:51.553Z,1.33
2022-09-25T13:40:39.137Z,1.20
2022-09-25T13:43:24.280Z,1.37
2022-09-25T13:46:23.681Z,1.53
2022-09-25T13:48:55.362Z,0.77
2022-09-25T13:51:21.672Z,1.17
2022-09-25T13:54:00.120Z,1.90
2022-09-25T13:56:33.913Z,1.03
2022-09-25T13:59:03.244Z,1.53
2022-09-25T14:01:34.595Z,1.20
2022-09-25T14:04:01.440Z,1.70
2022-09-25T14:06:35.682Z,0.70
2022-09-25T14:09:14.698Z,0.87
2022-09-25T14:11:52.355Z,1.20
2022-09-25T14:14:27.197Z,0.90
2022-09-25T14:16:56.407Z,0.80
2022-09-25T14:19:35.259Z,0.90
2022-09-25T14:22:03.346Z,1.23
2022-09-25T14:24:30.818Z,0.90
2022-09-25T14:27:01.369Z,1.20
2022-09-25T14:29:31.914Z,1.30
2022-09-25T14:32:50.213Z,1.13
2022-09-25T14:35:19.319Z,1.00
2022-09-25T14:38:00.616Z,1.10
2022-09-25T14:40:35.343Z,1.17
2022-09-25T14:43:20.514Z,0.90
2022-09-25T14:46:04.424Z,1.13
2022-09-25T14:48:41.851Z,0.70
2022-09-25T14:51:15.952Z,1.57
2022-09-25T14:53:46.087Z,1.13
2022-09-25T14:56:14.717Z,1.27
2022-09-25T14:58:49.462Z,1.10
2022-09-25T15:01:27.686Z,1.27
2022-09-25T15:04:05.630Z,0.93
2022-09-25T15:06:34.947Z,1.00
2022-09-25T15:09:02.882Z,0.87
2022-09-25T15:11:43.055Z,1.10
2022-09-25T15:14:17.730Z,1.10
2022-09-25T15:17:03.068Z,1.10
2022-09-25T15:19:33.109Z,1.30
2022-09-25T15:21:59.734Z,0.90
2022-09-25T15:24:31.805Z,1.07
2022-09-25T15:27:03.731Z,0.90
2022-09-25T15:29:35.110Z,1.10
2022-09-25T15:32:01.725Z,0.90
2022-09-25T15:34:33.166Z,0.90
2022-09-25T15:37:22.246Z,1.07
2022-09-25T15:39:48.663Z,1.37
2022-09-25T15:42:15.222Z,0.77
2022-09-25T15:44:41.909Z,1.00
2022-09-25T15:47:34.352Z,1.00
2022-09-25T15:50:02.069Z,1.00
2022-09-25T15:52:33.868Z,1.77
2022-09-25T15:55:02.639Z,0.97
2022-09-25T15:57:30.706Z,1.10
2022-09-25T16:00:17.284Z,1.70
2022-09-25T16:03:19.813Z,0.90
2022-09-25T16:05:48.470Z,1.10
2022-09-25T16:08:30.007Z,0.93
2022-09-25T16:11:26.529Z,1.13
2022-09-25T16:13:55.069Z,1.70
2022-09-25T16:16:29.430Z,1.03
2022-09-25T16:18:57.264Z,1.30
2022-09-25T16:21:31.890Z,1.20
2022-09-25T16:24:03.849Z,1.10
2022-09-25T16:26:38.737Z,1.27
2022-09-25T16:29:23.733Z,1.23
2022-09-25T16:31:54.282Z,1.50
2022-09-25T16:34:26.134Z,1.53
2022-09-25T16:36:54.662Z,1.57
2022-09-25T16:39:33.310Z,1.20
2022-09-25T16:42:00.162Z,1.23
2022-09-25T16:44:32.627Z,1.70
2022-09-25T16:46:58.924Z,1.50
2022-09-25T16:49:25.437Z,1.87
2022-09-25T16:51:53.913Z,1.30
2022-09-25T16:54:21.566Z,1.90
2022-09-25T16:56:48.791Z,1.60
2022-09-25T16:59:22.162Z,2.17
2022-09-25T17:01:55.846Z,2.00
2022-09-25T17:04:24.746Z,1.73
2022-09-25T17:06:51.136Z,1.90
2022-09-25T17:09:18.263Z,1.77
2022-09-25T17:11:46.813Z,1.70
2022-09-25T17:14:23.091Z,2.00
2022-09-25T17:16:50.853Z,1.77
2022-09-25T17:19:19.074Z,1.73
2022-09-25T17:21:50.138Z,1.60
2022-09-25T17:24:18.198Z,1.60
2022-09-25T17:26:45.100Z,1.60
2022-09-25T17:29:11.595Z,1.70
2022-09-25T17:31:38.123Z,1.93
2022-09-25T17:34:24.851Z,1.33
2022-09-25T17:36:54.709Z,2.47
2022-09-25T17:39:21.305Z,1.63
2022-09-25T17:41:47.860Z,1.57
2022-09-25T17:44:18.950Z,2.00
2022-09-25T17:46:46.428Z,2.07
2022-09-25T17:49:12.929Z,2.67
2022-09-25T17:51:39.576Z,2.20
2022-09-25T17:54:06.662Z,2.20
2022-09-25T17:56:37.699Z,2.23
2022-09-25T17:59:05.674Z,2.70
2022-09-25T18:01:38.389Z,2.20
2022-09-25T18:04:33.108Z,2.20
2022-09-25T18:07:00.114Z,2.70
2022-09-25T18:09:26.515Z,2.33
2022-09-25T18:11:53.132Z,2.37
2022-09-25T18:14:19.537Z,2.53
2022-09-25T18:16:46.045Z,2.87
2022-09-25T18:19:36.118Z,2.80
2022-09-25T18:22:18.755Z,2.47
2022-09-25T18:24:52.615Z,2.73
2022-09-25T18:27:19.205Z,2.90
2022-09-25T18:29:47.409Z,3.00
2022-09-25T18:32:14.266Z,3.03
2022-09-25T18:34:41.615Z,2.93
2022-09-25T18:37:08.212Z,2.93
2022-09-25T18:39:34.810Z,3.20
2022-09-25T18:42:01.225Z,3.00
2022-09-25T18:44:28.867Z,3.60
2022-09-25T18:46:55.742Z,3.23
2022-09-25T18:49:22.875Z,2.90
2022-09-25T18:51:49.261Z,3.33
2022-09-25T18:54:16.122Z,4.00
2022-09-25T18:56:42.858Z,3.57
2022-09-25T18:59:09.293Z,3.67
2022-09-25T19:01:36.148Z,4.43
2022-09-25T19:04:03.431Z,3.37
2022-09-25T19:06:29.849Z,4.10
2022-09-25T19:08:57.299Z,4.30
2022-09-25T19:11:25.180Z,4.80
2022-09-25T19:13:51.598Z,4.13
2022-09-25T19:16:18.683Z,4.07
2022-09-25T19:18:45.310Z,4.40
2022-09-25T19:21:16.251Z,3.93
2022-09-25T19:23:43.608Z,3.60
2022-09-25T19:26:15.015Z,3.73
2022-09-25T19:28:42.009Z,3.87
2022-09-25T19:31:13.918Z,4.57
2022-09-25T19:33:40.426Z,3.83
2022-09-25T19:36:10.031Z,3.90
2022-09-25T19:38:38.032Z,3.70
2022-09-25T19:41:13.421Z,4.10
2022-09-25T19:43:39.838Z,3.83
2022-09-25T19:46:06.872Z,4.10
2022-09-25T19:48:33.492Z,4.30
2022-09-25T19:50:59.976Z,3.57
2022-09-25T19:53:26.385Z,3.70
2022-09-25T19:55:54.084Z,3.33
2022-09-25T19:58:23.650Z,3.50
2022-09-25T20:00:50.688Z,3.90
2022-09-25T20:03:17.386Z,3.87
2022-09-25T20:05:44.698Z,3.47
2022-09-25T20:08:11.506Z,3.60
2022-09-25T20:10:38.252Z,4.23
2022-09-25T20:13:06.131Z,4.23
2022-09-25T20:15:33.794Z,3.37
2022-09-25T20:18:00.333Z,4.50
2022-09-25T20:20:28.428Z,4.97
2022-09-25T20:22:58.205Z,4.37
2022-09-25T20:25:27.954Z,5.00
2022-09-25T20:27:54.447Z,4.27
2022-09-25T20:30:21.920Z,4.77
2022-09-25T20:32:48.319Z,4.70
2022-09-25T20:35:14.735Z,4.70
2022-09-25T20:37:44.780Z,5.10
2022-09-25T20:40:11.282Z,4.57
2022-09-25T20:42:37.722Z,4.20
2022-09-25T20:45:04.721Z,4.40
2022-09-25T20:47:33.364Z,4.77
2022-09-25T20:50:00.814Z,4.60
2022-09-25T20:52:27.825Z,5.37
2022-09-25T20:54:54.259Z,4.63
2022-09-25T20:57:20.667Z,4.90
2022-09-25T20:59:47.108Z,3.97
2022-09-25T21:02:13.816Z,4.53
2022-09-25T21:04:40.332Z,4.77
2022-09-25T21:07:06.713Z,5.27
2022-09-25T21:09:33.115Z,4.83
2022-09-25T21:11:59.905Z,4.83
2022-09-25T21:14:27.924Z,5.40
2022-09-25T21:16:57.901Z,4.63
2022-09-25T21:19:24.473Z,4.47
2022-09-25T21:21:51.040Z,4.30
2022-09-25T21:24:19.443Z,4.70
2022-09-25T21:26:46.544Z,4.60
2022-09-25T21:29:15.663Z,4.33
2022-09-25T21:31:46.784Z,4.37
2022-09-25T21:34:16.215Z,4.37
2022-09-25T21:36:42.821Z,4.77
2022-09-25T21:39:09.655Z,5.07
2022-09-25T21:41:36.143Z,4.90
2022-09-25T21:44:06.411Z,4.53
2022-09-25T21:46:34.653Z,4.43
2022-09-25T21:49:03.472Z,4.43
2022-09-25T21:51:32.347Z,4.73
2022-09-25T21:54:01.030Z,4.40
2022-09-25T21:56:30.018Z,4.23
2022-09-25T21:58:57.492Z,4.60
2022-09-25T22:01:28.349Z,5.00
2022-09-25T22:03:56.996Z,4.60
2022-09-25T22:06:29.958Z,4.93
2022-09-25T22:08:58.946Z,4.33
2022-09-25T22:11:25.948Z,4.30
2022-09-25T22:13:52.954Z,4.07
2022-09-25T22:16:25.243Z,3.77
2022-09-25T22:18:56.873Z,4.00
2022-09-25T22:21:26.329Z,4.70
2022-09-25T22:23:53.055Z,4.00
2022-09-25T22:26:20.412Z,4.60
2022-09-25T22:28:46.828Z,4.73
2022-09-25T22:31:16.661Z,4.70
2022-09-25T22:33:43.169Z,4.20
2022-09-25T22:36:10.981Z,4.37
2022-09-25T22:38:38.109Z,4.50
2022-09-25T22:41:11.076Z,4.30
2022-09-25T22:43:38.054Z,4.40
2022-09-25T22:46:05.459Z,4.37
2022-09-25T22:48:32.175Z,3.67
2022-09-25T22:51:12.765Z,4.40
2022-09-25T22:53:39.686Z,4.30
2022-09-25T22:56:20.562Z,4.57
2022-09-25T22:58:49.754Z,4.50
2022-09-25T23:01:25.146Z,4.50
2022-09-25T23:03:57.123Z,4.50
2022-09-25T23:06:24.144Z,4.93
2022-09-25T23:09:02.287Z,4.73
2022-09-25T23:11:29.161Z,5.63
2022-09-25T23:14:00.787Z,5.03
2022-09-25T23:16:27.913Z,4.70
2022-09-25T23:18:58.030Z,4.93
2022-09-25T23:21:25.328Z,4.73
2022-09-25T23:24:15.832Z,5.07
2022-09-25T23:26:43.521Z,5.37
2022-09-25T23:29:15.845Z,4.90
2022-09-25T23:31:42.710Z,5.00
2022-09-25T23:34:09.780Z,5.10
2022-09-25T23:36:36.610Z,5.30
2022-09-25T23:39:04.234Z,5.67
2022-09-25T23:41:36.029Z,5.40
2022-09-25T23:44:05.075Z,5.77
2022-09-25T23:46:34.364Z,5.00
2022-09-25T23:49:00.930Z,5.43
2022-09-25T23:51:27.813Z,5.57
2022-09-25T23:53:56.140Z,6.23
2022-09-25T23:56:27.571Z,6.13
2022-09-25T23:58:56.562Z,5.80
